Terminal Aerodrome Forecast
Issued by NWS

Home | Current Version | Previous Version | Text Only | Print | Product List | Glossary On
Versions: 1 2 3 4 5 6 7 8 9 10 11 12
000
FTUS45 KGJT 061133
TAFMTJ
TAF
KMTJ 061133Z 0612/0712 15006KT P6SM FEW250
     FM061700 18006KT P6SM BKN140
     FM062000 24008KT P6SM BKN090
     FM070200 27010KT P6SM VCSH OVC070=

USA.gov is the U.S. government's official web portal to all federal, state and local government web resources and services.